sensor_id;sensor_type;location;lat;lon;timestamp;temperature;humidity
20155;DHT22;10238;49.556;10.956;2023-07-22T00:01:20;14.40;99.90
20155;DHT22;10238;49.556;10.956;2023-07-22T00:04:08;14.40;99.90
20155;DHT22;10238;49.556;10.956;2023-07-22T00:06:55;14.40;99.90
20155;DHT22;10238;49.556;10.956;2023-07-22T00:09:43;14.40;99.90
20155;DHT22;10238;49.556;10.956;2023-07-22T00:12:30;14.40;99.90
20155;DHT22;10238;49.556;10.956;2023-07-22T00:15:19;14.30;99.90
20155;DHT22;10238;49.556;10.956;2023-07-22T00:18:10;14.30;99.90
20155;DHT22;10238;49.556;10.956;2023-07-22T00:20:58;14.30;99.90
20155;DHT22;10238;49.556;10.956;2023-07-22T00:23:47;14.30;99.90
20155;DHT22;10238;49.556;10.956;2023-07-22T00:26:34;14.30;99.90
20155;DHT22;10238;49.556;10.956;2023-07-22T00:29:22;14.20;99.90
20155;DHT22;10238;49.556;10.956;2023-07-22T00:32:11;14.30;99.90
20155;DHT22;10238;49.556;10.956;2023-07-22T00:34:59;14.30;99.90
20155;DHT22;10238;49.556;10.956;2023-07-22T00:37:46;14.30;99.90
20155;DHT22;10238;49.556;10.956;2023-07-22T00:40:34;14.10;99.90
20155;DHT22;10238;49.556;10.956;2023-07-22T00:43:21;14.20;99.90
20155;DHT22;10238;49.556;10.956;2023-07-22T00:46:12;14.10;99.90
20155;DHT22;10238;49.556;10.956;2023-07-22T00:49:01;14.10;99.90
20155;DHT22;10238;49.556;10.956;2023-07-22T00:51:49;14.10;99.90
20155;DHT22;10238;49.556;10.956;2023-07-22T00:54:37;14.00;99.90
20155;DHT22;10238;49.556;10.956;2023-07-22T01:00:13;13.90;99.90
20155;DHT22;10238;49.556;10.956;2023-07-22T01:03:02;13.90;99.90
20155;DHT22;10238;49.556;10.956;2023-07-22T01:05:53;13.90;99.90
20155;DHT22;10238;49.556;10.956;2023-07-22T01:08:43;13.90;99.90
20155;DHT22;10238;49.556;10.956;2023-07-22T01:11:30;13.90;99.90
20155;DHT22;10238;49.556;10.956;2023-07-22T01:14:18;13.80;99.90
20155;DHT22;10238;49.556;10.956;2023-07-22T01:17:07;13.80;99.90
20155;DHT22;10238;49.556;10.956;2023-07-22T01:19:56;13.80;99.90
20155;DHT22;10238;49.556;10.956;2023-07-22T01:22:51;13.80;99.90
20155;DHT22;10238;49.556;10.956;2023-07-22T01:25:38;13.80;99.90
20155;DHT22;10238;49.556;10.956;2023-07-22T01:28:27;13.90;99.90
20155;DHT22;10238;49.556;10.956;2023-07-22T01:36:51;13.70;99.90
20155;DHT22;10238;49.556;10.956;2023-07-22T01:39:41;13.70;99.90
20155;DHT22;10238;49.556;10.956;2023-07-22T01:42:29;13.70;99.90
20155;DHT22;10238;49.556;10.956;2023-07-22T01:45:17;13.70;99.90
20155;DHT22;10238;49.556;10.956;2023-07-22T01:48:04;13.60;99.90
20155;DHT22;10238;49.556;10.956;2023-07-22T01:50:52;13.40;99.90
20155;DHT22;10238;49.556;10.956;2023-07-22T01:53:40;13.50;99.90
20155;DHT22;10238;49.556;10.956;2023-07-22T01:56:28;13.40;99.90
20155;DHT22;10238;49.556;10.956;2023-07-22T01:59:16;13.50;99.90
20155;DHT22;10238;49.556;10.956;2023-07-22T02:02:04;13.50;99.90
20155;DHT22;10238;49.556;10.956;2023-07-22T02:04:52;13.50;99.90
20155;DHT22;10238;49.556;10.956;2023-07-22T02:07:40;13.40;99.90
20155;DHT22;10238;49.556;10.956;2023-07-22T02:10:28;13.60;99.90
20155;DHT22;10238;49.556;10.956;2023-07-22T02:13:17;13.60;99.90
20155;DHT22;10238;49.556;10.956;2023-07-22T02:16:05;13.50;99.90
20155;DHT22;10238;49.556;10.956;2023-07-22T02:18:53;13.60;99.90
20155;DHT22;10238;49.556;10.956;2023-07-22T02:21:40;13.60;99.90
20155;DHT22;10238;49.556;10.956;2023-07-22T02:24:28;13.60;99.90
20155;DHT22;10238;49.556;10.956;2023-07-22T02:27:16;13.60;99.90
20155;DHT22;10238;49.556;10.956;2023-07-22T02:30:06;13.60;99.90
20155;DHT22;10238;49.556;10.956;2023-07-22T02:32:57;13.60;99.90
20155;DHT22;10238;49.556;10.956;2023-07-22T02:35:44;13.60;99.90
20155;DHT22;10238;49.556;10.956;2023-07-22T02:38:32;13.60;99.90
20155;DHT22;10238;49.556;10.956;2023-07-22T02:41:20;13.50;99.90
20155;DHT22;10238;49.556;10.956;2023-07-22T02:44:07;13.50;99.90
20155;DHT22;10238;49.556;10.956;2023-07-22T02:46:56;13.50;99.90
20155;DHT22;10238;49.556;10.956;2023-07-22T02:49:44;13.50;99.90
20155;DHT22;10238;49.556;10.956;2023-07-22T02:52:32;13.60;99.90
20155;DHT22;10238;49.556;10.956;2023-07-22T02:55:20;13.50;99.90
20155;DHT22;10238;49.556;10.956;2023-07-22T02:58:07;13.50;99.90
20155;DHT22;10238;49.556;10.956;2023-07-22T03:00:55;13.60;99.90
20155;DHT22;10238;49.556;10.956;2023-07-22T03:03:45;13.60;99.90
20155;DHT22;10238;49.556;10.956;2023-07-22T03:06:32;13.50;99.90
20155;DHT22;10238;49.556;10.956;2023-07-22T03:09:20;13.50;99.90
20155;DHT22;10238;49.556;10.956;2023-07-22T03:12:08;13.50;99.90
20155;DHT22;10238;49.556;10.956;2023-07-22T03:14:56;13.50;99.90
20155;DHT22;10238;49.556;10.956;2023-07-22T03:17:43;13.50;99.90
20155;DHT22;10238;49.556;10.956;2023-07-22T03:20:33;13.50;99.90
20155;DHT22;10238;49.556;10.956;2023-07-22T03:23:20;13.50;99.90
20155;DHT22;10238;49.556;10.956;2023-07-22T03:26:08;13.50;99.90
20155;DHT22;10238;49.556;10.956;2023-07-22T03:28:55;13.40;99.90
20155;DHT22;10238;49.556;10.956;2023-07-22T03:31:43;13.50;99.90
20155;DHT22;10238;49.556;10.956;2023-07-22T03:34:31;13.50;99.90
20155;DHT22;10238;49.556;10.956;2023-07-22T03:37:20;13.40;99.90
20155;DHT22;10238;49.556;10.956;2023-07-22T03:40:08;13.40;99.90
20155;DHT22;10238;49.556;10.956;2023-07-22T03:43:03;13.40;99.90
20155;DHT22;10238;49.556;10.956;2023-07-22T03:45:50;13.50;99.90
20155;DHT22;10238;49.556;10.956;2023-07-22T03:51:26;13.40;99.90
20155;DHT22;10238;49.556;10.956;2023-07-22T03:54:15;13.30;99.90
20155;DHT22;10238;49.556;10.956;2023-07-22T03:57:03;13.40;99.90
20155;DHT22;10238;49.556;10.956;2023-07-22T03:59:52;13.30;99.90
20155;DHT22;10238;49.556;10.956;2023-07-22T04:02:39;13.40;99.90
20155;DHT22;10238;49.556;10.956;2023-07-22T04:05:28;13.30;99.90
20155;DHT22;10238;49.556;10.956;2023-07-22T04:13:54;13.30;99.90
20155;DHT22;10238;49.556;10.956;2023-07-22T04:16:41;13.30;99.90
20155;DHT22;10238;49.556;10.956;2023-07-22T04:19:29;13.30;99.90
20155;DHT22;10238;49.556;10.956;2023-07-22T04:22:19;13.40;99.90
20155;DHT22;10238;49.556;10.956;2023-07-22T04:25:08;13.40;99.90
20155;DHT22;10238;49.556;10.956;2023-07-22T04:27:57;13.30;99.90
20155;DHT22;10238;49.556;10.956;2023-07-22T04:30:55;13.30;99.90
20155;DHT22;10238;49.556;10.956;2023-07-22T04:33:44;13.30;99.90
20155;DHT22;10238;49.556;10.956;2023-07-22T04:40:15;13.30;99.90
20155;DHT22;10238;49.556;10.956;2023-07-22T04:43:05;13.30;99.90
20155;DHT22;10238;49.556;10.956;2023-07-22T04:45:53;13.30;99.90
20155;DHT22;10238;49.556;10.956;2023-07-22T04:48:42;13.40;99.90
20155;DHT22;10238;49.556;10.956;2023-07-22T04:51:30;13.50;99.90
20155;DHT22;10238;49.556;10.956;2023-07-22T04:54:18;13.50;99.90
20155;DHT22;10238;49.556;10.956;2023-07-22T04:57:06;13.60;99.90
20155;DHT22;10238;49.556;10.956;2023-07-22T04:59:55;13.70;99.90
20155;DHT22;10238;49.556;10.956;2023-07-22T05:02:43;13.70;99.90
20155;DHT22;10238;49.556;10.956;2023-07-22T05:05:32;13.80;99.90
20155;DHT22;10238;49.556;10.956;2023-07-22T05:08:20;13.90;99.90
20155;DHT22;10238;49.556;10.956;2023-07-22T05:11:08;13.90;99.90
20155;DHT22;10238;49.556;10.956;2023-07-22T05:14:01;13.90;99.90
20155;DHT22;10238;49.556;10.956;2023-07-22T05:16:50;14.00;99.90
20155;DHT22;10238;49.556;10.956;2023-07-22T05:19:38;14.10;99.90
20155;DHT22;10238;49.556;10.956;2023-07-22T05:22:25;14.10;99.90
20155;DHT22;10238;49.556;10.956;2023-07-22T05:34:10;14.60;99.90
20155;DHT22;10238;49.556;10.956;2023-07-22T05:36:58;14.70;99.90
20155;DHT22;10238;49.556;10.956;2023-07-22T05:39:46;14.60;99.90
20155;DHT22;10238;49.556;10.956;2023-07-22T05:42:33;14.60;99.90
20155;DHT22;10238;49.556;10.956;2023-07-22T05:45:21;14.60;99.90
20155;DHT22;10238;49.556;10.956;2023-07-22T05:48:09;14.70;99.90
20155;DHT22;10238;49.556;10.956;2023-07-22T05:50:58;14.70;99.90
20155;DHT22;10238;49.556;10.956;2023-07-22T05:53:46;14.80;99.90
20155;DHT22;10238;49.556;10.956;2023-07-22T05:56:33;14.80;99.90
20155;DHT22;10238;49.556;10.956;2023-07-22T05:59:23;14.70;99.90
20155;DHT22;10238;49.556;10.956;2023-07-22T06:02:13;14.70;99.90
20155;DHT22;10238;49.556;10.956;2023-07-22T06:05:07;14.70;99.90
20155;DHT22;10238;49.556;10.956;2023-07-22T06:07:56;14.70;99.90
20155;DHT22;10238;49.556;10.956;2023-07-22T06:10:50;14.70;99.90
20155;DHT22;10238;49.556;10.956;2023-07-22T06:19:15;14.80;99.90
20155;DHT22;10238;49.556;10.956;2023-07-22T06:22:04;14.80;99.90
20155;DHT22;10238;49.556;10.956;2023-07-22T06:24:57;14.90;99.90
20155;DHT22;10238;49.556;10.956;2023-07-22T06:27:46;14.90;99.90
20155;DHT22;10238;49.556;10.956;2023-07-22T06:30:34;14.90;99.90
20155;DHT22;10238;49.556;10.956;2023-07-22T06:33:22;14.90;99.90
20155;DHT22;10238;49.556;10.956;2023-07-22T06:36:11;14.90;99.90
20155;DHT22;10238;49.556;10.956;2023-07-22T06:39:08;14.90;99.90
20155;DHT22;10238;49.556;10.956;2023-07-22T06:44:53;14.90;99.90
20155;DHT22;10238;49.556;10.956;2023-07-22T06:47:41;14.90;99.90
20155;DHT22;10238;49.556;10.956;2023-07-22T06:50:30;14.90;99.90
20155;DHT22;10238;49.556;10.956;2023-07-22T06:53:23;14.90;99.90
20155;DHT22;10238;49.556;10.956;2023-07-22T06:56:11;14.80;99.90
20155;DHT22;10238;49.556;10.956;2023-07-22T07:01:50;14.80;99.90
20155;DHT22;10238;49.556;10.956;2023-07-22T07:04:39;14.80;99.90
20155;DHT22;10238;49.556;10.956;2023-07-22T07:07:27;14.80;99.90
20155;DHT22;10238;49.556;10.956;2023-07-22T07:10:15;14.90;99.90
20155;DHT22;10238;49.556;10.956;2023-07-22T07:13:12;14.90;99.90
20155;DHT22;10238;49.556;10.956;2023-07-22T07:16:20;14.90;99.90
20155;DHT22;10238;49.556;10.956;2023-07-22T07:19:10;14.90;99.90
20155;DHT22;10238;49.556;10.956;2023-07-22T07:21:58;15.00;99.90
20155;DHT22;10238;49.556;10.956;2023-07-22T07:24:52;15.10;99.90
20155;DHT22;10238;49.556;10.956;2023-07-22T07:27:40;15.20;99.90
20155;DHT22;10238;49.556;10.956;2023-07-22T07:33:17;15.20;99.90
20155;DHT22;10238;49.556;10.956;2023-07-22T07:36:05;15.20;99.90
20155;DHT22;10238;49.556;10.956;2023-07-22T07:38:53;15.20;99.90
20155;DHT22;10238;49.556;10.956;2023-07-22T07:41:41;15.20;99.90
20155;DHT22;10238;49.556;10.956;2023-07-22T07:44:29;15.20;99.90
20155;DHT22;10238;49.556;10.956;2023-07-22T07:47:16;15.20;99.90
20155;DHT22;10238;49.556;10.956;2023-07-22T07:50:07;15.10;99.90
20155;DHT22;10238;49.556;10.956;2023-07-22T07:52:58;15.20;99.90
20155;DHT22;10238;49.556;10.956;2023-07-22T07:55:46;15.30;99.90
20155;DHT22;10238;49.556;10.956;2023-07-22T07:58:37;15.40;99.90
20155;DHT22;10238;49.556;10.956;2023-07-22T08:01:25;15.30;99.90
20155;DHT22;10238;49.556;10.956;2023-07-22T08:04:13;15.30;99.90
20155;DHT22;10238;49.556;10.956;2023-07-22T08:07:06;15.40;99.90
20155;DHT22;10238;49.556;10.956;2023-07-22T08:09:58;15.40;99.90
20155;DHT22;10238;49.556;10.956;2023-07-22T08:12:47;15.30;99.90
20155;DHT22;10238;49.556;10.956;2023-07-22T08:15:34;15.30;99.90
20155;DHT22;10238;49.556;10.956;2023-07-22T08:18:23;15.50;99.90
20155;DHT22;10238;49.556;10.956;2023-07-22T08:26:59;16.00;99.90
20155;DHT22;10238;49.556;10.956;2023-07-22T08:29:47;16.20;99.90
20155;DHT22;10238;49.556;10.956;2023-07-22T08:32:34;16.30;99.90
20155;DHT22;10238;49.556;10.956;2023-07-22T08:35:22;16.40;99.90
20155;DHT22;10238;49.556;10.956;2023-07-22T08:38:11;16.60;99.90
20155;DHT22;10238;49.556;10.956;2023-07-22T08:41:02;16.70;99.90
20155;DHT22;10238;49.556;10.956;2023-07-22T08:43:54;16.80;99.90
20155;DHT22;10238;49.556;10.956;2023-07-22T08:46:45;17.10;99.90
20155;DHT22;10238;49.556;10.956;2023-07-22T08:49:36;17.00;99.90
20155;DHT22;10238;49.556;10.956;2023-07-22T08:52:48;16.90;99.90
20155;DHT22;10238;49.556;10.956;2023-07-22T08:55:39;16.90;99.90
20155;DHT22;10238;49.556;10.956;2023-07-22T09:02:22;17.00;99.90
20155;DHT22;10238;49.556;10.956;2023-07-22T09:05:12;17.00;99.90
20155;DHT22;10238;49.556;10.956;2023-07-22T09:08:02;17.00;99.90
20155;DHT22;10238;49.556;10.956;2023-07-22T09:13:54;17.20;99.90
20155;DHT22;10238;49.556;10.956;2023-07-22T09:16:45;17.50;99.90
20155;DHT22;10238;49.556;10.956;2023-07-22T09:19:33;17.90;99.90
20155;DHT22;10238;49.556;10.956;2023-07-22T09:22:45;18.60;99.90
20155;DHT22;10238;49.556;10.956;2023-07-22T09:29:00;19.30;99.90
20155;DHT22;10238;49.556;10.956;2023-07-22T09:31:51;19.40;99.90
20155;DHT22;10238;49.556;10.956;2023-07-22T09:34:54;19.60;99.90
20155;DHT22;10238;49.556;10.956;2023-07-22T09:37:42;19.90;99.90
20155;DHT22;10238;49.556;10.956;2023-07-22T09:40:41;20.10;99.90
20155;DHT22;10238;49.556;10.956;2023-07-22T09:43:36;20.40;99.90
20155;DHT22;10238;49.556;10.956;2023-07-22T09:49:24;21.50;99.90
20155;DHT22;10238;49.556;10.956;2023-07-22T09:55:06;21.90;99.90
20155;DHT22;10238;49.556;10.956;2023-07-22T09:57:56;22.00;99.90
20155;DHT22;10238;49.556;10.956;2023-07-22T10:00:48;22.10;99.90
20155;DHT22;10238;49.556;10.956;2023-07-22T10:04:34;22.40;99.90
20155;DHT22;10238;49.556;10.956;2023-07-22T10:10:17;23.10;99.90
20155;DHT22;10238;49.556;10.956;2023-07-22T10:13:09;23.20;99.90
20155;DHT22;10238;49.556;10.956;2023-07-22T10:16:01;23.30;99.90
20155;DHT22;10238;49.556;10.956;2023-07-22T10:18:50;23.20;99.90
20155;DHT22;10238;49.556;10.956;2023-07-22T10:21:40;23.20;99.90
20155;DHT22;10238;49.556;10.956;2023-07-22T10:24:28;23.20;99.90
20155;DHT22;10238;49.556;10.956;2023-07-22T10:27:17;23.50;99.90
20155;DHT22;10238;49.556;10.956;2023-07-22T10:30:06;23.90;99.90
20155;DHT22;10238;49.556;10.956;2023-07-22T10:32:55;24.30;99.90
20155;DHT22;10238;49.556;10.956;2023-07-22T10:35:47;24.80;99.90
20155;DHT22;10238;49.556;10.956;2023-07-22T10:39:04;25.10;99.90
20155;DHT22;10238;49.556;10.956;2023-07-22T10:41:59;25.20;99.90
20155;DHT22;10238;49.556;10.956;2023-07-22T10:44:48;24.80;99.90
20155;DHT22;10238;49.556;10.956;2023-07-22T10:47:38;24.40;99.90
20155;DHT22;10238;49.556;10.956;2023-07-22T10:50:42;24.20;99.90
20155;DHT22;10238;49.556;10.956;2023-07-22T10:53:37;24.10;99.90
20155;DHT22;10238;49.556;10.956;2023-07-22T10:56:36;24.20;99.90
20155;DHT22;10238;49.556;10.956;2023-07-22T10:59:26;24.40;99.90
20155;DHT22;10238;49.556;10.956;2023-07-22T11:02:26;24.40;99.90
20155;DHT22;10238;49.556;10.956;2023-07-22T11:05:16;24.50;99.90
20155;DHT22;10238;49.556;10.956;2023-07-22T11:08:05;24.90;99.90
20155;DHT22;10238;49.556;10.956;2023-07-22T11:10:59;25.00;99.90
20155;DHT22;10238;49.556;10.956;2023-07-22T11:13:50;25.10;99.90
20155;DHT22;10238;49.556;10.956;2023-07-22T11:16:38;25.30;99.90
20155;DHT22;10238;49.556;10.956;2023-07-22T11:19:26;25.50;99.90
20155;DHT22;10238;49.556;10.956;2023-07-22T11:22:15;25.80;99.90
20155;DHT22;10238;49.556;10.956;2023-07-22T11:25:05;26.10;99.90
20155;DHT22;10238;49.556;10.956;2023-07-22T11:27:53;26.50;99.90
20155;DHT22;10238;49.556;10.956;2023-07-22T11:30:42;26.60;99.90
20155;DHT22;10238;49.556;10.956;2023-07-22T11:33:38;26.60;99.90
20155;DHT22;10238;49.556;10.956;2023-07-22T11:36:33;26.60;99.90
20155;DHT22;10238;49.556;10.956;2023-07-22T11:39:23;26.80;99.90
20155;DHT22;10238;49.556;10.956;2023-07-22T11:42:17;26.80;99.50
20155;DHT22;10238;49.556;10.956;2023-07-22T11:45:06;26.60;98.60
20155;DHT22;10238;49.556;10.956;2023-07-22T11:47:56;26.80;99.90
20155;DHT22;10238;49.556;10.956;2023-07-22T11:50:44;26.70;98.00
20155;DHT22;10238;49.556;10.956;2023-07-22T11:53:32;26.40;99.00
20155;DHT22;10238;49.556;10.956;2023-07-22T11:56:34;26.10;99.70
20155;DHT22;10238;49.556;10.956;2023-07-22T11:59:37;26.00;99.20
20155;DHT22;10238;49.556;10.956;2023-07-22T12:02:27;26.00;99.50
20155;DHT22;10238;49.556;10.956;2023-07-22T12:05:25;25.60;97.70
20155;DHT22;10238;49.556;10.956;2023-07-22T12:08:15;25.30;97.70
20155;DHT22;10238;49.556;10.956;2023-07-22T12:11:33;24.90;97.80
20155;DHT22;10238;49.556;10.956;2023-07-22T12:14:20;24.90;98.70
20155;DHT22;10238;49.556;10.956;2023-07-22T12:17:08;25.10;99.20
20155;DHT22;10238;49.556;10.956;2023-07-22T12:20:36;25.20;98.00
20155;DHT22;10238;49.556;10.956;2023-07-22T12:23:24;25.30;99.50
20155;DHT22;10238;49.556;10.956;2023-07-22T12:26:37;26.10;98.40
20155;DHT22;10238;49.556;10.956;2023-07-22T12:29:49;26.20;96.20
20155;DHT22;10238;49.556;10.956;2023-07-22T12:41:24;27.60;96.70
20155;DHT22;10238;49.556;10.956;2023-07-22T12:44:47;27.30;95.00
20155;DHT22;10238;49.556;10.956;2023-07-22T12:47:36;27.10;96.40
20155;DHT22;10238;49.556;10.956;2023-07-22T12:50:30;27.70;95.00
20155;DHT22;10238;49.556;10.956;2023-07-22T12:53:17;27.50;92.70
20155;DHT22;10238;49.556;10.956;2023-07-22T12:56:08;27.40;92.60
20155;DHT22;10238;49.556;10.956;2023-07-22T12:59:37;26.90;93.60
20155;DHT22;10238;49.556;10.956;2023-07-22T13:02:27;26.90;95.20
20155;DHT22;10238;49.556;10.956;2023-07-22T13:05:22;27.70;96.10
20155;DHT22;10238;49.556;10.956;2023-07-22T13:08:18;27.70;92.70
20155;DHT22;10238;49.556;10.956;2023-07-22T13:11:06;27.50;94.60
20155;DHT22;10238;49.556;10.956;2023-07-22T13:13:54;27.40;94.70
20155;DHT22;10238;49.556;10.956;2023-07-22T13:16:46;27.40;96.00
20155;DHT22;10238;49.556;10.956;2023-07-22T13:19:34;28.40;94.00
20155;DHT22;10238;49.556;10.956;2023-07-22T13:22:22;29.00;90.50
20155;DHT22;10238;49.556;10.956;2023-07-22T13:25:10;28.80;93.80
20155;DHT22;10238;49.556;10.956;2023-07-22T13:27:57;29.10;93.60
20155;DHT22;10238;49.556;10.956;2023-07-22T13:30:45;29.10;95.20
20155;DHT22;10238;49.556;10.956;2023-07-22T13:33:34;29.00;92.20
20155;DHT22;10238;49.556;10.956;2023-07-22T13:36:22;29.10;92.40
20155;DHT22;10238;49.556;10.956;2023-07-22T13:41:58;28.80;91.40
20155;DHT22;10238;49.556;10.956;2023-07-22T13:44:46;28.60;91.50
20155;DHT22;10238;49.556;10.956;2023-07-22T13:47:34;28.50;91.90
20155;DHT22;10238;49.556;10.956;2023-07-22T13:50:24;28.40;90.90
20155;DHT22;10238;49.556;10.956;2023-07-22T13:53:12;28.30;91.70
20155;DHT22;10238;49.556;10.956;2023-07-22T13:56:00;28.80;91.20
20155;DHT22;10238;49.556;10.956;2023-07-22T13:58:48;29.10;91.60
20155;DHT22;10238;49.556;10.956;2023-07-22T14:01:35;29.30;89.80
20155;DHT22;10238;49.556;10.956;2023-07-22T14:04:24;29.30;87.90
20155;DHT22;10238;49.556;10.956;2023-07-22T14:07:14;29.40;88.50
20155;DHT22;10238;49.556;10.956;2023-07-22T14:10:02;29.50;90.70
20155;DHT22;10238;49.556;10.956;2023-07-22T14:12:54;29.70;91.20
20155;DHT22;10238;49.556;10.956;2023-07-22T14:15:41;29.80;88.00
20155;DHT22;10238;49.556;10.956;2023-07-22T14:18:29;29.50;90.30
20155;DHT22;10238;49.556;10.956;2023-07-22T14:21:17;29.10;90.50
20155;DHT22;10238;49.556;10.956;2023-07-22T14:24:11;28.70;91.00
20155;DHT22;10238;49.556;10.956;2023-07-22T14:26:59;28.50;90.10
20155;DHT22;10238;49.556;10.956;2023-07-22T14:29:47;28.10;90.00
20155;DHT22;10238;49.556;10.956;2023-07-22T14:32:35;28.00;89.60
20155;DHT22;10238;49.556;10.956;2023-07-22T14:35:23;27.70;90.90
20155;DHT22;10238;49.556;10.956;2023-07-22T14:38:10;27.70;91.50
20155;DHT22;10238;49.556;10.956;2023-07-22T14:41:00;27.80;90.90
20155;DHT22;10238;49.556;10.956;2023-07-22T14:43:49;27.80;91.00
20155;DHT22;10238;49.556;10.956;2023-07-22T14:46:37;27.80;91.00
20155;DHT22;10238;49.556;10.956;2023-07-22T14:49:27;27.70;90.60
20155;DHT22;10238;49.556;10.956;2023-07-22T14:52:18;27.60;90.40
20155;DHT22;10238;49.556;10.956;2023-07-22T14:55:07;27.60;92.00
20155;DHT22;10238;49.556;10.956;2023-07-22T14:57:56;27.60;90.10
20155;DHT22;10238;49.556;10.956;2023-07-22T15:00:44;27.50;90.60
20155;DHT22;10238;49.556;10.956;2023-07-22T15:03:32;27.50;90.30
20155;DHT22;10238;49.556;10.956;2023-07-22T15:06:20;27.40;91.70
20155;DHT22;10238;49.556;10.956;2023-07-22T15:09:07;27.70;90.50
20155;DHT22;10238;49.556;10.956;2023-07-22T15:11:56;27.60;87.80
20155;DHT22;10238;49.556;10.956;2023-07-22T15:14:45;27.60;88.40
20155;DHT22;10238;49.556;10.956;2023-07-22T15:17:58;27.80;91.30
20155;DHT22;10238;49.556;10.956;2023-07-22T15:20:46;28.60;92.10
20155;DHT22;10238;49.556;10.956;2023-07-22T15:23:34;29.00;86.40
20155;DHT22;10238;49.556;10.956;2023-07-22T15:26:21;29.10;88.20
20155;DHT22;10238;49.556;10.956;2023-07-22T15:29:09;29.50;89.20
20155;DHT22;10238;49.556;10.956;2023-07-22T15:31:59;29.50;88.20
20155;DHT22;10238;49.556;10.956;2023-07-22T15:34:48;29.70;88.00
20155;DHT22;10238;49.556;10.956;2023-07-22T15:37:39;29.60;88.20
20155;DHT22;10238;49.556;10.956;2023-07-22T15:40:27;29.20;86.10
20155;DHT22;10238;49.556;10.956;2023-07-22T15:43:15;29.10;87.60
20155;DHT22;10238;49.556;10.956;2023-07-22T15:46:03;29.30;86.40
20155;DHT22;10238;49.556;10.956;2023-07-22T15:48:53;29.60;85.70
20155;DHT22;10238;49.556;10.956;2023-07-22T15:51:41;29.70;85.90
20155;DHT22;10238;49.556;10.956;2023-07-22T15:54:28;29.60;81.10
20155;DHT22;10238;49.556;10.956;2023-07-22T15:57:18;29.20;85.30
20155;DHT22;10238;49.556;10.956;2023-07-22T16:00:07;28.90;86.10
20155;DHT22;10238;49.556;10.956;2023-07-22T16:02:58;29.00;89.00
20155;DHT22;10238;49.556;10.956;2023-07-22T16:05:48;28.90;88.30
20155;DHT22;10238;49.556;10.956;2023-07-22T16:08:36;28.90;87.90
20155;DHT22;10238;49.556;10.956;2023-07-22T16:11:24;28.80;85.90
20155;DHT22;10238;49.556;10.956;2023-07-22T16:14:12;28.70;87.40
20155;DHT22;10238;49.556;10.956;2023-07-22T16:17:00;28.60;86.10
20155;DHT22;10238;49.556;10.956;2023-07-22T16:19:48;28.50;87.40
20155;DHT22;10238;49.556;10.956;2023-07-22T16:22:37;28.40;86.80
20155;DHT22;10238;49.556;10.956;2023-07-22T16:25:26;28.40;88.50
20155;DHT22;10238;49.556;10.956;2023-07-22T16:28:14;28.40;90.00
20155;DHT22;10238;49.556;10.956;2023-07-22T16:31:02;28.50;88.70
20155;DHT22;10238;49.556;10.956;2023-07-22T16:33:50;28.20;86.30
20155;DHT22;10238;49.556;10.956;2023-07-22T16:36:38;28.00;87.10
20155;DHT22;10238;49.556;10.956;2023-07-22T16:39:27;28.00;89.90
20155;DHT22;10238;49.556;10.956;2023-07-22T16:42:15;28.40;90.00
20155;DHT22;10238;49.556;10.956;2023-07-22T16:45:03;28.80;87.20
20155;DHT22;10238;49.556;10.956;2023-07-22T16:47:52;28.90;84.70
20155;DHT22;10238;49.556;10.956;2023-07-22T16:50:40;28.70;85.60
20155;DHT22;10238;49.556;10.956;2023-07-22T16:53:27;28.60;87.10
20155;DHT22;10238;49.556;10.956;2023-07-22T16:56:16;28.80;84.50
20155;DHT22;10238;49.556;10.956;2023-07-22T16:59:04;28.90;84.60
20155;DHT22;10238;49.556;10.956;2023-07-22T17:01:52;28.90;82.30
20155;DHT22;10238;49.556;10.956;2023-07-22T17:04:40;29.00;82.50
20155;DHT22;10238;49.556;10.956;2023-07-22T17:07:27;28.90;82.10
20155;DHT22;10238;49.556;10.956;2023-07-22T17:10:16;28.70;82.60
20155;DHT22;10238;49.556;10.956;2023-07-22T17:13:05;28.50;82.50
20155;DHT22;10238;49.556;10.956;2023-07-22T17:15:53;28.30;83.10
20155;DHT22;10238;49.556;10.956;2023-07-22T17:18:41;28.10;82.30
20155;DHT22;10238;49.556;10.956;2023-07-22T17:21:28;27.90;82.30
20155;DHT22;10238;49.556;10.956;2023-07-22T17:27:05;27.40;87.30
20155;DHT22;10238;49.556;10.956;2023-07-22T17:29:55;27.20;83.90
20155;DHT22;10238;49.556;10.956;2023-07-22T17:32:43;27.00;84.30
20155;DHT22;10238;49.556;10.956;2023-07-22T17:35:35;26.90;85.70
20155;DHT22;10238;49.556;10.956;2023-07-22T17:38:25;26.70;88.80
20155;DHT22;10238;49.556;10.956;2023-07-22T17:41:12;26.60;85.60
20155;DHT22;10238;49.556;10.956;2023-07-22T17:44:04;26.40;86.20
20155;DHT22;10238;49.556;10.956;2023-07-22T17:46:53;26.30;88.90
20155;DHT22;10238;49.556;10.956;2023-07-22T17:49:41;26.00;89.70
20155;DHT22;10238;49.556;10.956;2023-07-22T17:52:28;25.90;89.50
20155;DHT22;10238;49.556;10.956;2023-07-22T17:55:16;25.70;90.80
20155;DHT22;10238;49.556;10.956;2023-07-22T17:58:04;25.60;88.00
20155;DHT22;10238;49.556;10.956;2023-07-22T18:00:51;25.50;90.10
20155;DHT22;10238;49.556;10.956;2023-07-22T18:03:40;25.30;90.30
20155;DHT22;10238;49.556;10.956;2023-07-22T18:06:28;25.20;90.60
20155;DHT22;10238;49.556;10.956;2023-07-22T18:09:17;25.00;90.40
20155;DHT22;10238;49.556;10.956;2023-07-22T18:12:05;24.90;91.10
20155;DHT22;10238;49.556;10.956;2023-07-22T18:14:58;24.80;91.00
20155;DHT22;10238;49.556;10.956;2023-07-22T18:17:45;24.70;91.80
20155;DHT22;10238;49.556;10.956;2023-07-22T18:20:36;24.50;91.10
20155;DHT22;10238;49.556;10.956;2023-07-22T18:23:23;24.40;92.10
20155;DHT22;10238;49.556;10.956;2023-07-22T18:26:11;24.20;91.70
20155;DHT22;10238;49.556;10.956;2023-07-22T18:28:58;24.10;92.60
20155;DHT22;10238;49.556;10.956;2023-07-22T18:31:46;24.00;92.70
20155;DHT22;10238;49.556;10.956;2023-07-22T18:34:34;23.90;93.40
20155;DHT22;10238;49.556;10.956;2023-07-22T18:37:23;23.80;92.60
20155;DHT22;10238;49.556;10.956;2023-07-22T18:40:12;23.70;93.70
20155;DHT22;10238;49.556;10.956;2023-07-22T18:43:00;23.60;93.50
20155;DHT22;10238;49.556;10.956;2023-07-22T18:45:47;23.50;93.40
20155;DHT22;10238;49.556;10.956;2023-07-22T18:48:34;23.40;93.80
20155;DHT22;10238;49.556;10.956;2023-07-22T18:51:23;23.30;93.50
20155;DHT22;10238;49.556;10.956;2023-07-22T18:54:15;23.10;93.70
20155;DHT22;10238;49.556;10.956;2023-07-22T18:57:02;23.00;94.00
20155;DHT22;10238;49.556;10.956;2023-07-22T18:59:50;22.90;94.30